WetterOnline ( http://www.wetteronline.de )

Wetter aktuell Zweibrücken

Aktuelles Wetter: Saarbrücken/Ensheim (320m)

6-stündlich | Neueste Meldungen
Ortszeit Temperatur Wetter
So, 18.02. 1:00 -2.7° C Nebel (zunehmend)
Sa, 17.02. 19:00 0.7° C bewölkt
Sa, 17.02. 13:00 0.3° C leichter Schneefall
Sa, 17.02. 7:00 0.7° C leichter Schneeregen
Sa, 17.02. 1:00 0.9° C leicht bewölkt
Fr, 16.02. 19:00 3.7° C leicht bewölkt
Fr, 16.02. 13:00 7.0° C leicht bewölkt
Fr, 16.02. 7:00 3.9° C bedeckt
Ortszeit Temperatur Wetter
So, 18.02. 3:50 -5° C Nebelschwaden
So, 18.02. 3:30 -4.4° C Nebel
So, 18.02. 3:20 -4.4° C -
So, 18.02. 3:10 -4.7° C -
So, 18.02. 3:00 -5.0° C Nebel (zunehmend)
So, 18.02. 2:50 -5.0° C -
So, 18.02. 2:30 -4.1° C Nebel
So, 18.02. 2:00 -4.4° C Nebel (abnehmend)
So, 18.02. 1:30 -3.2° C Nebel (zunehmend)
So, 18.02. 1:00 -2.7° C Nebel (zunehmend)
So, 18.02. 0:30 -2.9° C Nebel (zunehmend)
Ortszeit Relative Feuchte Sichtweite
So, 18.02. 1:00 98% 0.3 km
Sa, 17.02. 19:00 92% 6 km
Sa, 17.02. 13:00 94% 2.5 km
Sa, 17.02. 7:00 91% 9 km
Sa, 17.02. 1:00 86% 50 km
Fr, 16.02. 19:00 67% 60 km
Fr, 16.02. 13:00 68% 20 km
Fr, 16.02. 7:00 91% 30 km
Ortszeit Relative Feuchte Sichtweite
So, 18.02. 3:50 100% 1.3 km
So, 18.02. 3:30 94% 0.4 km
So, 18.02. 3:20 94% -
So, 18.02. 3:10 96% -
So, 18.02. 3:00 96% 0.4 km
So, 18.02. 2:50 96% -
So, 18.02. 2:30 96% 0.8 km
So, 18.02. 2:00 96% 0.8 km
So, 18.02. 1:30 98% 0.2 km
So, 18.02. 1:00 98% 0.3 km
So, 18.02. 0:30 96% 0.7 km
Ortszeit Niederschlagsmenge Niederschlagsart
So, 18.02. 1:00 0.0 l/m2 in 6 Std. -
Sa, 17.02. 19:00 4 l/m2 in 12 Std. Schnee
Sa, 17.02. 13:00 3 l/m2 in 6 Std. Schnee
Sa, 17.02. 7:00 0.1 l/m2 in 12 Std. -
Sa, 17.02. 1:00 0.0 l/m2 in 6 Std. -
Fr, 16.02. 19:00 0.0 l/m2 in 12 Std. -
Fr, 16.02. 13:00 0.0 l/m2 in 6 Std. -
Fr, 16.02. 7:00 2 l/m2 in 12 Std. Sprühregen
Ortszeit Niederschlagsmenge Niederschlagsart
So, 18.02. 3:50 keine Meldung -
So, 18.02. 3:30 0.0 l/m2 in 1 Std. -
So, 18.02. 3:20 keine Meldung -
So, 18.02. 3:10 keine Meldung -
So, 18.02. 3:00 0.0 l/m2 in 1 Std. Nebel
So, 18.02. 2:50 keine Meldung -
So, 18.02. 2:30 0.0 l/m2 in 1 Std. -
So, 18.02. 2:00 0.0 l/m2 in 1 Std. Nebel
So, 18.02. 1:30 0.0 l/m2 in 1 Std. -
So, 18.02. 1:00 0.0 l/m2 in 1 Std. -
So, 18.02. 0:30 0.0 l/m2 in 1 Std. -
Ortszeit Stärke Spitze Richtung
km/h Bft. km/h Grad Sektor
So, 18.02. 1:00 6 1 15 270° W
Sa, 17.02. 19:00 11 2 36 50° NO
Sa, 17.02. 13:00 22 4 36 50° NO
Sa, 17.02. 7:00 14 3 29 80° O
Sa, 17.02. 1:00 15 3 24 70° O
Fr, 16.02. 19:00 6 1 17 60° NO
Fr, 16.02. 13:00 7 2 19 260° W
Fr, 16.02. 7:00 7 2 11 280° W
Ortszeit Stärke Spitze Richtung
km/h Bft. km/h Grad Sektor
So, 18.02. 3:50 4 1 - 80° O
So, 18.02. 3:30 0 0 0 - -
So, 18.02. 3:20 0 0 - - -
So, 18.02. 3:10 0 0 - - -
So, 18.02. 3:00 0 0 4 - -
So, 18.02. 2:50 0 0 - - -
So, 18.02. 2:30 0 0 4 - -
So, 18.02. 2:00 4 1 7 360° N
So, 18.02. 1:30 2 1 7 90° O
So, 18.02. 1:00 6 1 6 270° W
So, 18.02. 0:30 4 1 7 350° N
Ortszeit Untergrenze Bedeckung Gattung
total tief tief mittel hoch
So, 18.02. 1:00 30 m 7/8 7/8 St - -
Sa, 17.02. 19:00 900 m 7/8 7/8 Sc - -
Sa, 17.02. 13:00 210 m 8/8 7/8 Sc - -
Sa, 17.02. 7:00 390 m 8/8 7/8 Sc - -
Sa, 17.02. 1:00 7500 m 3/8 0/8 - - Ci
Fr, 16.02. 19:00 6000 m 7/8 7/8 - - Cs
Fr, 16.02. 13:00 450 m 4/8 3/8 Cu - Ci
Fr, 16.02. 7:00 330 m 8/8 8/8 Sc - -
Ortszeit Bedeckungsgrad in Achtel und Wolkenuntergrenze
So, 18.02. 3:50 1-2(30m)
So, 18.02. 3:30 keine Wolken
So, 18.02. 3:20 -
So, 18.02. 3:10 -
So, 18.02. 3:00 1(30m)
So, 18.02. 2:50 -
So, 18.02. 2:30 2(30m)
So, 18.02. 2:00 3(30m)
So, 18.02. 1:30 8
So, 18.02. 1:00 7(30m)
So, 18.02. 0:30 3(30m)
Ortszeit Luftdruck NN (hPa) Tendenz (hPa in 3 Std.)
So, 18.02. 1:00 1028 + 1,4
Sa, 17.02. 19:00 1024 + 2,9
Sa, 17.02. 13:00 1020 + 0,4
Sa, 17.02. 7:00 1020 - 2,7
Sa, 17.02. 1:00 1026 - 1,0
Fr, 16.02. 19:00 1027 0,0
Fr, 16.02. 13:00 1028 + 0,8
Fr, 16.02. 7:00 1025 + 1,6
Ortszeit Luftdruck NN (hPa) Tendenz (hPa in 3 Std.)
So, 18.02. 3:50 1025 keine Meldung
So, 18.02. 3:30 1028 + 0,6
So, 18.02. 3:20 1028 keine Meldung
So, 18.02. 3:10 1028 keine Meldung
So, 18.02. 3:00 1028 + 0,9
So, 18.02. 2:50 1028 keine Meldung
So, 18.02. 2:30 1028 + 1,1
So, 18.02. 2:00 1028 + 1,3
So, 18.02. 1:30 1028 + 1,1
So, 18.02. 1:00 1028 + 1,4
So, 18.02. 0:30 1027 + 1,3
Ortszeit Schneehöhe (cm)
So, 18.02. 1:00 1
Sa, 17.02. 19:00 1
Sa, 17.02. 13:00 2
Sa, 17.02. 7:00 0
Sa, 17.02. 1:00 0
Fr, 16.02. 19:00 0
Fr, 16.02. 13:00 0
Fr, 16.02. 7:00 0
Ortszeit Schneehöhe (cm)
So, 18.02. 3:50 -
So, 18.02. 3:30 -
So, 18.02. 3:20 -
So, 18.02. 3:10 -
So, 18.02. 3:00 -
So, 18.02. 2:50 -
So, 18.02. 2:30 -
So, 18.02. 2:00 -
So, 18.02. 1:30 -
So, 18.02. 1:00 1
So, 18.02. 0:30 -
Link zu dieser Seite / Seite empfehlen

Das Wetter in ...